createdAt,value
2019-04-22T00:00:45.376Z,0.00
2019-04-22T00:01:43.672Z,0.00
2019-04-22T00:02:50.598Z,0.00
2019-04-22T00:03:52.486Z,0.00
2019-04-22T00:04:57.582Z,0.00
2019-04-22T00:06:06.626Z,0.00
2019-04-22T00:07:03.155Z,0.00
2019-04-22T00:08:08.539Z,0.00
2019-04-22T00:09:12.107Z,0.00
2019-04-22T00:10:16.222Z,0.00
2019-04-22T00:11:13.186Z,0.00
2019-04-22T00:12:14.079Z,0.00
2019-04-22T00:13:09.403Z,0.00
2019-04-22T00:14:08.506Z,0.00
2019-04-22T00:15:08.092Z,0.00
2019-04-22T00:16:08.930Z,0.00
2019-04-22T00:17:30.449Z,0.00
2019-04-22T00:18:16.458Z,0.00
2019-04-22T00:19:15.375Z,0.00
2019-04-22T00:20:10.210Z,0.00
2019-04-22T00:21:12.492Z,0.00
2019-04-22T00:22:15.305Z,0.00
2019-04-22T00:23:03.648Z,0.00
2019-04-22T00:24:12.030Z,0.00
2019-04-22T00:25:18.042Z,0.00
2019-04-22T00:26:08.697Z,0.00
2019-04-22T00:27:14.408Z,0.00
2019-04-22T00:28:08.563Z,0.00
2019-04-22T00:29:35.691Z,0.00
2019-04-22T00:30:13.753Z,0.00
2019-04-22T00:31:11.819Z,0.00
2019-04-22T00:32:05.013Z,0.00
2019-04-22T00:33:07.820Z,0.00
2019-04-22T00:34:06.195Z,0.00
2019-04-22T00:35:07.195Z,0.00
2019-04-22T00:36:08.755Z,0.00
2019-04-22T00:37:11.679Z,0.00
2019-04-22T00:38:11.180Z,0.00
2019-04-22T00:39:16.725Z,0.00
2019-04-22T00:40:09.100Z,0.00
2019-04-22T00:41:08.833Z,0.00
2019-04-22T00:42:10.035Z,0.00
2019-04-22T00:43:04.981Z,0.00
2019-04-22T00:44:17.822Z,0.00
2019-04-22T00:45:11.715Z,0.00
2019-04-22T00:46:10.961Z,0.00
2019-04-22T00:47:14.667Z,0.00
2019-04-22T00:48:17.842Z,0.00
2019-04-22T00:49:52.708Z,0.00
2019-04-22T00:50:26.764Z,0.00
2019-04-22T00:52:09.334Z,0.00
2019-04-22T00:53:08.977Z,0.00
2019-04-22T00:54:08.035Z,0.00
2019-04-22T00:55:12.966Z,0.00
2019-04-22T00:57:12.269Z,0.00
2019-04-22T00:58:10.043Z,0.00
2019-04-22T00:59:06.777Z,0.00
2019-04-22T01:00:13.021Z,0.00
2019-04-22T01:01:07.845Z,0.00
2019-04-22T01:02:18.507Z,0.00
2019-04-22T01:03:11.513Z,0.00
2019-04-22T01:04:16.260Z,0.00
2019-04-22T01:05:09.265Z,0.00
2019-04-22T01:06:09.733Z,0.00
2019-04-22T01:07:09.191Z,0.00
2019-04-22T01:08:15.158Z,0.00
2019-04-22T01:09:23.457Z,0.00
2019-04-22T01:10:12.694Z,0.00
2019-04-22T01:11:11.275Z,0.00
2019-04-22T01:12:07.023Z,0.00
2019-04-22T01:13:04.787Z,0.00
2019-04-22T01:14:09.236Z,0.00
2019-04-22T01:15:12.499Z,0.00
2019-04-22T01:16:13.922Z,0.00
2019-04-22T01:17:08.907Z,0.00
2019-04-22T01:18:05.416Z,0.00
2019-04-22T01:19:06.561Z,0.00
2019-04-22T01:20:25.826Z,0.00
2019-04-22T01:21:17.797Z,0.00
2019-04-22T01:22:06.818Z,0.00
2019-04-22T01:23:09.598Z,0.00
2019-04-22T01:24:02.723Z,0.00
2019-04-22T01:25:02.420Z,0.00
2019-04-22T01:26:00.785Z,0.00
2019-04-22T01:27:00.524Z,0.00
2019-04-22T01:27:58.279Z,0.00
2019-04-22T01:28:59.550Z,0.00
2019-04-22T01:29:59.798Z,0.00
2019-04-22T01:30:51.710Z,0.00
2019-04-22T01:31:45.642Z,0.00
2019-04-22T01:32:47.295Z,0.00
2019-04-22T01:33:48.388Z,0.00
2019-04-22T01:34:56.567Z,0.00
2019-04-22T01:36:06.396Z,0.00
2019-04-22T01:37:02.895Z,0.00
2019-04-22T01:38:01.686Z,0.00
2019-04-22T01:39:02.414Z,0.00
2019-04-22T01:40:10.898Z,0.00
2019-04-22T01:41:08.521Z,0.00
2019-04-22T01:42:06.066Z,0.00
2019-04-22T01:43:08.685Z,0.00
2019-04-22T01:44:16.518Z,0.00
2019-04-22T01:45:11.787Z,0.00
2019-04-22T01:46:12.678Z,0.00
2019-04-22T01:47:13.455Z,0.00
2019-04-22T01:48:10.471Z,0.00
2019-04-22T01:49:08.394Z,0.00
2019-04-22T01:50:06.307Z,0.00
2019-04-22T01:51:03.410Z,0.00
2019-04-22T01:52:11.483Z,0.00
2019-04-22T01:54:15.098Z,0.00
2019-04-22T01:56:05.965Z,0.00
2019-04-22T01:57:04.906Z,0.00
2019-04-22T01:58:09.011Z,0.00
2019-04-22T01:58:58.761Z,0.00
2019-04-22T02:00:00.401Z,0.00
2019-04-22T02:01:04.560Z,0.00
2019-04-22T02:02:14.367Z,0.00
2019-04-22T02:03:12.505Z,0.00
2019-04-22T02:04:10.120Z,0.00
2019-04-22T02:05:15.654Z,0.00
2019-04-22T02:06:06.934Z,0.00
2019-04-22T02:07:09.377Z,0.00
2019-04-22T02:08:14.590Z,0.00
2019-04-22T02:09:17.652Z,0.00
2019-04-22T02:10:11.140Z,0.00
2019-04-22T02:11:12.396Z,0.00
2019-04-22T02:13:10.078Z,0.00
2019-04-22T02:14:11.703Z,0.00
2019-04-22T02:15:12.018Z,0.00
2019-04-22T02:16:14.525Z,0.00
2019-04-22T02:17:09.192Z,0.00
2019-04-22T02:18:17.986Z,0.00
2019-04-22T02:19:11.687Z,0.00
2019-04-22T02:20:25.345Z,0.00
2019-04-22T02:21:09.396Z,0.00
2019-04-22T02:22:07.088Z,0.00
2019-04-22T02:23:30.329Z,0.00
2019-04-22T02:24:08.986Z,0.00
2019-04-22T02:25:09.355Z,0.00
2019-04-22T02:26:25.593Z,0.00
2019-04-22T02:27:12.362Z,0.00
2019-04-22T02:28:23.984Z,0.00
2019-04-22T02:29:06.643Z,0.00
2019-04-22T02:30:08.455Z,0.00
2019-04-22T02:32:19.646Z,0.00
2019-04-22T02:33:45.967Z,0.00
2019-04-22T02:35:41.217Z,0.00
2019-04-22T02:36:25.352Z,0.00
2019-04-22T02:37:13.368Z,0.00
2019-04-22T02:38:19.449Z,0.00
2019-04-22T02:39:12.136Z,0.00
2019-04-22T02:40:10.293Z,0.00
2019-04-22T02:41:22.965Z,0.00
2019-04-22T02:43:28.303Z,0.00
2019-04-22T02:45:10.047Z,0.00
2019-04-22T02:48:31.887Z,0.00
2019-04-22T02:51:16.815Z,0.00
2019-04-22T02:52:18.035Z,0.00
2019-04-22T02:53:24.802Z,0.00
2019-04-22T02:54:33.881Z,0.00
2019-04-22T02:55:24.642Z,0.00
2019-04-22T02:56:25.637Z,0.00
2019-04-22T02:57:28.050Z,0.00
2019-04-22T02:58:12.675Z,0.00
2019-04-22T03:01:24.829Z,0.00
2019-04-22T03:02:14.471Z,0.00
2019-04-22T03:03:20.526Z,0.00
2019-04-22T03:04:11.012Z,0.00
2019-04-22T03:05:24.107Z,0.00
2019-04-22T03:07:12.742Z,0.00
2019-04-22T03:08:14.925Z,0.00
2019-04-22T03:10:22.754Z,0.00
2019-04-22T03:12:25.190Z,0.00
2019-04-22T03:13:21.342Z,0.00
2019-04-22T03:15:09.529Z,0.00
2019-04-22T03:16:17.755Z,0.00
2019-04-22T03:18:19.478Z,0.00
2019-04-22T03:20:09.115Z,0.00
2019-04-22T03:21:16.129Z,0.00
2019-04-22T03:23:34.128Z,0.00
2019-04-22T03:25:42.768Z,0.00
2019-04-22T03:26:22.532Z,0.00
2019-04-22T03:27:17.179Z,0.00
2019-04-22T03:28:08.750Z,0.00
2019-04-22T03:29:28.767Z,0.00
2019-04-22T03:30:41.758Z,0.00
2019-04-22T03:31:21.340Z,0.00
2019-04-22T03:32:39.449Z,0.00
2019-04-22T03:34:55.417Z,0.00
2019-04-22T03:36:42.198Z,0.00
2019-04-22T03:38:18.268Z,0.00
2019-04-22T03:39:29.705Z,0.00
2019-04-22T03:42:17.585Z,0.00
2019-04-22T03:43:13.755Z,0.00
2019-04-22T03:44:23.534Z,0.00
2019-04-22T03:46:16.668Z,0.00
2019-04-22T03:47:16.155Z,0.00
2019-04-22T03:48:13.091Z,0.00
2019-04-22T03:50:25.475Z,4.00
2019-04-22T03:51:20.152Z,0.00
2019-04-22T03:54:29.579Z,4.00
2019-04-22T03:56:36.574Z,4.00
2019-04-22T03:57:36.956Z,4.00
2019-04-22T03:58:28.241Z,8.00
2019-04-22T03:59:29.095Z,8.00
2019-04-22T04:00:21.909Z,8.00
2019-04-22T04:01:21.805Z,8.00
2019-04-22T04:02:21.507Z,12.00
2019-04-22T04:05:26.434Z,16.00
2019-04-22T04:06:20.836Z,24.00
2019-04-22T04:08:14.579Z,28.00
2019-04-22T04:09:18.101Z,32.00
2019-04-22T04:10:25.879Z,36.00
2019-04-22T04:11:06.437Z,40.00
2019-04-22T04:12:28.281Z,48.00
2019-04-22T04:13:19.824Z,52.00
2019-04-22T04:14:18.158Z,64.00
2019-04-22T04:16:10.708Z,76.00
2019-04-22T04:17:26.136Z,84.00
2019-04-22T04:18:15.764Z,92.00
2019-04-22T04:19:27.815Z,104.00
2019-04-22T04:20:21.839Z,116.00
2019-04-22T04:22:21.817Z,140.00
2019-04-22T04:23:16.774Z,152.00
2019-04-22T04:26:33.491Z,196.00
2019-04-22T04:28:31.610Z,228.00
2019-04-22T04:29:26.058Z,248.00
2019-04-22T04:31:24.575Z,280.00
2019-04-22T04:32:25.118Z,300.00
2019-04-22T04:33:21.175Z,320.00
2019-04-22T04:34:28.329Z,340.00
2019-04-22T04:35:28.234Z,360.00
2019-04-22T04:36:11.546Z,380.00
2019-04-22T04:37:35.165Z,400.00
2019-04-22T04:38:08.196Z,428.00
2019-04-22T04:40:21.348Z,480.00
2019-04-22T04:41:23.117Z,500.00
2019-04-22T04:42:23.436Z,524.00
2019-04-22T04:43:16.128Z,552.00
2019-04-22T04:44:24.647Z,572.00
2019-04-22T04:46:24.392Z,624.00
2019-04-22T04:48:14.383Z,672.00
2019-04-22T04:50:12.171Z,724.00
2019-04-22T04:51:23.979Z,748.00
2019-04-22T04:52:30.912Z,772.00
2019-04-22T04:54:24.266Z,824.00
2019-04-22T04:57:16.469Z,896.00
2019-04-22T04:58:25.177Z,920.00
2019-04-22T05:00:10.848Z,944.00
2019-04-22T05:05:20.284Z,1084.00
2019-04-22T05:06:12.646Z,1104.00
2019-04-22T05:07:19.606Z,1128.00
2019-04-22T05:08:19.830Z,1148.00
2019-04-22T05:11:16.232Z,1212.00
2019-04-22T05:14:09.406Z,1276.00
2019-04-22T05:15:18.364Z,1300.00
2019-04-22T05:16:25.363Z,1316.00
2019-04-22T05:17:12.843Z,1340.00
2019-04-22T05:18:14.898Z,1356.00
2019-04-22T05:20:24.272Z,1396.00
2019-04-22T05:21:14.531Z,1412.00
2019-04-22T05:22:14.888Z,1432.00
2019-04-22T05:23:11.956Z,1448.00
2019-04-22T05:25:11.735Z,1480.00
2019-04-22T05:26:16.585Z,1504.00
2019-04-22T05:27:15.116Z,1524.00
2019-04-22T05:28:06.835Z,1544.00
2019-04-22T05:29:09.757Z,1560.00
2019-04-22T05:30:27.912Z,1580.00
2019-04-22T05:31:11.297Z,1596.00
2019-04-22T05:33:07.365Z,1624.00
2019-04-22T05:34:09.897Z,1632.00
2019-04-22T05:35:06.888Z,1648.00
2019-04-22T05:36:10.284Z,1668.00
2019-04-22T05:37:07.359Z,1684.00
2019-04-22T05:38:09.749Z,1708.00
2019-04-22T05:39:09.438Z,1728.00
2019-04-22T05:40:12.181Z,1744.00
2019-04-22T05:41:02.657Z,1760.00
2019-04-22T05:42:08.925Z,1772.00
2019-04-22T05:43:09.388Z,1784.00
2019-04-22T05:44:08.292Z,1800.00
2019-04-22T05:45:10.148Z,1816.00
2019-04-22T05:46:02.913Z,1828.00
2019-04-22T05:47:08.087Z,1844.00
2019-04-22T05:48:02.425Z,1860.00
2019-04-22T05:49:06.045Z,1872.00
2019-04-22T05:50:02.381Z,1884.00
2019-04-22T05:51:04.444Z,1904.00
2019-04-22T05:52:05.256Z,1916.00
2019-04-22T05:53:03.174Z,1932.00
2019-04-22T05:54:11.680Z,1948.00
2019-04-22T05:55:10.937Z,1964.00
2019-04-22T05:56:12.723Z,1976.00
2019-04-22T05:57:11.982Z,1992.00
2019-04-22T05:58:04.245Z,2008.00
2019-04-22T05:59:07.374Z,2028.00
2019-04-22T06:00:06.302Z,2040.00
2019-04-22T06:01:30.244Z,2040.00
2019-04-22T06:03:04.538Z,2036.00
2019-04-22T06:04:11.566Z,2052.00
2019-04-22T06:05:03.703Z,2068.00
2019-04-22T06:06:10.401Z,2080.00
2019-04-22T06:07:01.019Z,2096.00
2019-04-22T06:08:06.664Z,2108.00
2019-04-22T06:09:07.163Z,2120.00
2019-04-22T06:10:15.871Z,2136.00
2019-04-22T06:11:10.246Z,2144.00
2019-04-22T06:11:59.171Z,2144.00
2019-04-22T06:13:00.838Z,2148.00
2019-04-22T06:14:01.903Z,2156.00
2019-04-22T06:15:05.297Z,2160.00
2019-04-22T06:16:04.708Z,2152.00
2019-04-22T06:17:03.938Z,2148.00
2019-04-22T06:18:25.576Z,2164.00
2019-04-22T06:19:11.773Z,2156.00
2019-04-22T06:20:04.242Z,2144.00
2019-04-22T06:21:05.226Z,2152.00
2019-04-22T06:22:06.881Z,2156.00
2019-04-22T06:24:11.262Z,2180.00
2019-04-22T06:25:09.884Z,2204.00
2019-04-22T06:26:09.856Z,2244.00
2019-04-22T06:27:14.537Z,2280.00
2019-04-22T06:28:13.524Z,2320.00
2019-04-22T06:29:13.304Z,2368.00
2019-04-22T06:30:04.208Z,2420.00
2019-04-22T06:31:12.269Z,2444.00
2019-04-22T06:33:11.291Z,2488.00
2019-04-22T06:34:10.551Z,2520.00
2019-04-22T06:35:15.030Z,2536.00
2019-04-22T06:37:08.221Z,2592.00
2019-04-22T06:38:31.592Z,2624.00
2019-04-22T06:39:10.487Z,2640.00
2019-04-22T06:40:11.026Z,2640.00
2019-04-22T06:41:09.292Z,2648.00
2019-04-22T06:42:11.436Z,2648.00
2019-04-22T06:44:14.467Z,2660.00
2019-04-22T06:45:07.311Z,2672.00
2019-04-22T06:46:08.454Z,2724.00
2019-04-22T06:47:10.604Z,2724.00
2019-04-22T06:48:08.335Z,2744.00
2019-04-22T06:49:11.199Z,2784.00
2019-04-22T06:50:07.778Z,2816.00
2019-04-22T06:51:01.753Z,2840.00
2019-04-22T06:52:08.115Z,2868.00
2019-04-22T06:53:06.460Z,2904.00
2019-04-22T06:54:08.904Z,2868.00
2019-04-22T06:55:13.156Z,2764.00
2019-04-22T06:56:05.206Z,2672.00
2019-04-22T06:58:04.545Z,2524.00
2019-04-22T06:59:08.506Z,2388.00
2019-04-22T07:00:05.653Z,2124.00
2019-04-22T07:01:09.558Z,2032.00
2019-04-22T07:02:10.070Z,2072.00
2019-04-22T07:03:28.767Z,2136.00
2019-04-22T07:04:03.572Z,2240.00
2019-04-22T07:05:00.998Z,2356.00
2019-04-22T07:06:09.508Z,2532.00
2019-04-22T07:07:08.088Z,2720.00
2019-04-22T07:08:16.069Z,2856.00
2019-04-22T07:09:20.589Z,2836.00
2019-04-22T07:10:15.079Z,2992.00
2019-04-22T07:11:04.637Z,3164.00
2019-04-22T07:12:10.048Z,3248.00
2019-04-22T07:13:01.464Z,3352.00
2019-04-22T07:15:16.585Z,3484.00
2019-04-22T07:16:03.928Z,3516.00
2019-04-22T07:17:03.629Z,3564.00
2019-04-22T07:20:04.145Z,3732.00
2019-04-22T07:21:01.243Z,3752.00
2019-04-22T07:22:03.397Z,3712.00
2019-04-22T07:23:07.980Z,3692.00
2019-04-22T07:24:21.475Z,3636.00
2019-04-22T07:25:06.596Z,3596.00
2019-04-22T07:26:04.299Z,3580.00
2019-04-22T07:27:08.593Z,3544.00
2019-04-22T07:28:08.321Z,3536.00
2019-04-22T07:29:06.124Z,3528.00
2019-04-22T07:30:08.992Z,3516.00
2019-04-22T07:31:04.001Z,3496.00
2019-04-22T07:33:19.893Z,3508.00
2019-04-22T07:34:13.694Z,3488.00
2019-04-22T07:35:08.594Z,3476.00
2019-04-22T07:37:22.669Z,3424.00
2019-04-22T07:38:04.408Z,3432.00
2019-04-22T07:39:05.743Z,3420.00
2019-04-22T07:40:02.440Z,3416.00
2019-04-22T07:41:00.547Z,3396.00
2019-04-22T07:42:06.596Z,3388.00
2019-04-22T07:43:08.272Z,3372.00
2019-04-22T07:45:03.889Z,3360.00
2019-04-22T07:46:05.129Z,3348.00
2019-04-22T07:47:15.315Z,3332.00
2019-04-22T07:48:13.040Z,3336.00
2019-04-22T07:49:05.233Z,3344.00
2019-04-22T07:50:09.755Z,3356.00
2019-04-22T07:52:06.117Z,3348.00
2019-04-22T07:53:08.458Z,3368.00
2019-04-22T07:54:03.140Z,3368.00
2019-04-22T07:55:01.041Z,3388.00
2019-04-22T07:56:05.172Z,3412.00
2019-04-22T07:57:11.710Z,3452.00
2019-04-22T07:58:10.202Z,3456.00
2019-04-22T07:59:03.984Z,3496.00
2019-04-22T08:00:10.601Z,3492.00
2019-04-22T08:01:12.138Z,3492.00
2019-04-22T08:02:04.732Z,3512.00
2019-04-22T08:03:06.622Z,3536.00
2019-04-22T08:04:22.879Z,3504.00
2019-04-22T08:05:20.975Z,3524.00
2019-04-22T08:07:05.169Z,3604.00
2019-04-22T08:08:07.228Z,3584.00
2019-04-22T08:09:12.283Z,3624.00
2019-04-22T08:10:17.202Z,3528.00
2019-04-22T08:11:11.209Z,3636.00
2019-04-22T08:11:59.483Z,3592.00
2019-04-22T08:13:05.406Z,3640.00
2019-04-22T08:14:00.289Z,3700.00
2019-04-22T08:15:06.059Z,3724.00
2019-04-22T08:16:02.678Z,3724.00
2019-04-22T08:17:14.164Z,3704.00
2019-04-22T08:18:04.893Z,3664.00
2019-04-22T08:19:13.453Z,3632.00
2019-04-22T08:21:04.732Z,3556.00
2019-04-22T08:22:02.732Z,3508.00
2019-04-22T08:24:01.266Z,3384.00
2019-04-22T08:25:01.879Z,3376.00
2019-04-22T08:26:00.964Z,3348.00
2019-04-22T08:27:04.853Z,3316.00
2019-04-22T08:28:03.044Z,3276.00
2019-04-22T08:29:06.379Z,3228.00
2019-04-22T08:30:06.438Z,3188.00
2019-04-22T08:31:09.849Z,3172.00
2019-04-22T08:31:59.107Z,3132.00
2019-04-22T08:33:11.157Z,3104.00
2019-04-22T08:34:08.285Z,3104.00
2019-04-22T08:35:04.663Z,3104.00
2019-04-22T08:37:35.694Z,3088.00
2019-04-22T08:39:07.989Z,3076.00
2019-04-22T08:40:07.583Z,3088.00
2019-04-22T08:41:06.552Z,3080.00
2019-04-22T08:42:05.015Z,3084.00
2019-04-22T08:44:18.614Z,3076.00
2019-04-22T08:45:09.253Z,3072.00
2019-04-22T08:46:06.188Z,3072.00
2019-04-22T08:47:11.509Z,3060.00
2019-04-22T08:48:00.944Z,3064.00
2019-04-22T08:49:00.748Z,3064.00
2019-04-22T08:50:07.705Z,3064.00
2019-04-22T08:51:00.774Z,3152.00
2019-04-22T08:53:08.123Z,3088.00
2019-04-22T08:54:09.049Z,3084.00
2019-04-22T08:55:08.593Z,3084.00
2019-04-22T08:56:16.142Z,3064.00
2019-04-22T08:57:06.788Z,3068.00
2019-04-22T08:59:10.881Z,3092.00
2019-04-22T09:00:02.463Z,3112.00
2019-04-22T09:01:06.508Z,3172.00
2019-04-22T09:02:09.340Z,3076.00
2019-04-22T09:03:04.436Z,3160.00
2019-04-22T09:04:04.019Z,3160.00
2019-04-22T09:05:01.527Z,3192.00
2019-04-22T09:06:04.473Z,3192.00
2019-04-22T09:07:12.409Z,3132.00
2019-04-22T09:08:09.497Z,3220.00
2019-04-22T09:09:06.449Z,3260.00
2019-04-22T09:10:02.152Z,3212.00
2019-04-22T09:11:03.627Z,3204.00
2019-04-22T09:13:13.975Z,3200.00
2019-04-22T09:14:06.523Z,3220.00
2019-04-22T09:14:55.352Z,3148.00
2019-04-22T09:16:02.474Z,3192.00
2019-04-22T09:17:05.688Z,3168.00
2019-04-22T09:18:11.124Z,3168.00
2019-04-22T09:20:00.399Z,3172.00
2019-04-22T09:21:15.288Z,3176.00
2019-04-22T09:22:05.205Z,3180.00
2019-04-22T09:24:05.273Z,3176.00
2019-04-22T09:24:57.377Z,3192.00
2019-04-22T09:26:01.397Z,3200.00
2019-04-22T09:27:05.900Z,3188.00
2019-04-22T09:28:02.790Z,3192.00
2019-04-22T09:29:06.501Z,3148.00
2019-04-22T09:30:04.781Z,3192.00
2019-04-22T09:31:06.696Z,3168.00
2019-04-22T09:32:09.524Z,3136.00
2019-04-22T09:33:11.100Z,3184.00
2019-04-22T09:33:59.088Z,3176.00
2019-04-22T09:35:03.367Z,3160.00
2019-04-22T09:36:13.020Z,3132.00
2019-04-22T09:38:23.745Z,3116.00
2019-04-22T09:39:02.909Z,3100.00
2019-04-22T09:40:09.234Z,3112.00
2019-04-22T09:40:58.475Z,3088.00
2019-04-22T09:42:07.830Z,3084.00
2019-04-22T09:43:04.965Z,3096.00
2019-04-22T09:44:02.080Z,3044.00
2019-04-22T09:44:59.230Z,3064.00
2019-04-22T09:45:57.424Z,3052.00
2019-04-22T09:47:00.233Z,3056.00
2019-04-22T09:48:09.098Z,3060.00
2019-04-22T09:49:09.711Z,3052.00
2019-04-22T09:50:03.383Z,3056.00
2019-04-22T09:51:03.773Z,3056.00
2019-04-22T09:52:08.016Z,3048.00
2019-04-22T09:53:02.073Z,3044.00
2019-04-22T09:54:08.990Z,3052.00
2019-04-22T09:55:07.510Z,3036.00
2019-04-22T09:56:03.999Z,3036.00
2019-04-22T09:57:01.890Z,3040.00
2019-04-22T09:58:02.788Z,3036.00
2019-04-22T09:59:02.365Z,3024.00
2019-04-22T10:00:11.029Z,3016.00
2019-04-22T10:01:09.418Z,3012.00
2019-04-22T10:04:01.012Z,2976.00
2019-04-22T10:05:07.756Z,2980.00
2019-04-22T10:06:09.879Z,2980.00
2019-04-22T10:06:59.734Z,2984.00
2019-04-22T10:08:13.366Z,2976.00
2019-04-22T10:11:06.009Z,2988.00
2019-04-22T10:12:02.800Z,2972.00
2019-04-22T10:13:10.438Z,2976.00
2019-04-22T10:14:59.945Z,2964.00
2019-04-22T10:16:03.117Z,2972.00
2019-04-22T10:17:04.271Z,2968.00
2019-04-22T10:18:02.539Z,2964.00
2019-04-22T10:19:04.708Z,2972.00
2019-04-22T10:20:03.335Z,2980.00
2019-04-22T10:21:00.624Z,2976.00
2019-04-22T10:23:05.878Z,2932.00
2019-04-22T10:24:03.446Z,2960.00
2019-04-22T10:25:07.220Z,2980.00
2019-04-22T10:26:04.979Z,2980.00
2019-04-22T10:27:02.160Z,2956.00
2019-04-22T10:28:09.007Z,2964.00
2019-04-22T10:29:08.556Z,2960.00
2019-04-22T10:31:05.400Z,2964.00
2019-04-22T10:32:00.798Z,2952.00
2019-04-22T10:33:00.843Z,3008.00
2019-04-22T10:33:53.289Z,2984.00
2019-04-22T10:34:44.466Z,2984.00
2019-04-22T10:35:37.308Z,2964.00
2019-04-22T10:36:37.710Z,2948.00
2019-04-22T10:37:36.591Z,2952.00
2019-04-22T10:38:36.698Z,2964.00
2019-04-22T10:39:43.923Z,2972.00
2019-04-22T10:40:36.766Z,2956.00
2019-04-22T10:41:36.645Z,2964.00
2019-04-22T10:42:35.761Z,2944.00
2019-04-22T10:43:36.985Z,2952.00
2019-04-22T10:44:37.205Z,2940.00
2019-04-22T10:45:36.233Z,2944.00
2019-04-22T10:46:36.030Z,2932.00
2019-04-22T10:47:36.016Z,2936.00
2019-04-22T10:48:36.590Z,2936.00
2019-04-22T10:49:36.158Z,2940.00
2019-04-22T10:50:36.343Z,2940.00
2019-04-22T10:51:36.879Z,2928.00
2019-04-22T10:52:35.646Z,2936.00
2019-04-22T10:53:35.700Z,2944.00
2019-04-22T10:54:35.760Z,2960.00
2019-04-22T10:55:37.189Z,2944.00
2019-04-22T10:56:36.862Z,2924.00
2019-04-22T10:57:35.999Z,2916.00
2019-04-22T10:58:35.674Z,2916.00
2019-04-22T10:59:36.416Z,2916.00
2019-04-22T11:00:35.609Z,2912.00
2019-04-22T11:01:38.431Z,2904.00
2019-04-22T11:02:35.507Z,2912.00
2019-04-22T11:03:37.197Z,2916.00
2019-04-22T11:04:36.407Z,2904.00
2019-04-22T11:05:35.488Z,2916.00
2019-04-22T11:06:40.942Z,2900.00
2019-04-22T11:07:43.986Z,2924.00
2019-04-22T11:08:44.535Z,2912.00
2019-04-22T11:09:47.648Z,2900.00
2019-04-22T11:10:50.564Z,2904.00
2019-04-22T11:11:46.613Z,2904.00
2019-04-22T11:12:38.011Z,2908.00
2019-04-22T11:13:35.864Z,2924.00
2019-04-22T11:14:36.876Z,2932.00
2019-04-22T11:15:35.371Z,2940.00
2019-04-22T11:16:35.353Z,2940.00
2019-04-22T11:17:35.605Z,2928.00
2019-04-22T11:18:35.783Z,2940.00
2019-04-22T11:19:35.423Z,2952.00
2019-04-22T11:20:35.788Z,2972.00
2019-04-22T11:21:35.980Z,2980.00
2019-04-22T11:22:37.003Z,2972.00
2019-04-22T11:23:36.434Z,2960.00
2019-04-22T11:24:36.853Z,2968.00
2019-04-22T11:25:36.149Z,2976.00
2019-04-22T11:26:36.784Z,2980.00
2019-04-22T11:27:35.259Z,3000.00
2019-04-22T11:28:35.877Z,3024.00
2019-04-22T11:29:35.395Z,3056.00
2019-04-22T11:30:36.708Z,3032.00
2019-04-22T11:31:36.457Z,3048.00
2019-04-22T11:32:36.235Z,3056.00
2019-04-22T11:33:36.381Z,3060.00
2019-04-22T11:34:35.456Z,3076.00
2019-04-22T11:35:35.147Z,3096.00
2019-04-22T11:36:36.948Z,3104.00
2019-04-22T11:37:36.594Z,3128.00
2019-04-22T11:38:38.973Z,3160.00
2019-04-22T11:39:36.679Z,3216.00
2019-04-22T11:40:40.319Z,3312.00
2019-04-22T11:41:36.253Z,3480.00
2019-04-22T11:42:36.351Z,4032.00
2019-04-22T11:43:36.236Z,5880.00
2019-04-22T11:44:35.337Z,7100.00
2019-04-22T11:45:35.431Z,5092.00
2019-04-22T11:46:35.598Z,4068.00
2019-04-22T11:47:35.365Z,3844.00
2019-04-22T11:48:35.949Z,3796.00
2019-04-22T11:49:36.200Z,3820.00
2019-04-22T11:50:35.750Z,3664.00
2019-04-22T11:51:36.084Z,3768.00
2019-04-22T11:52:35.098Z,3812.00
2019-04-22T11:53:34.972Z,3816.00
2019-04-22T11:54:34.970Z,3904.00
2019-04-22T11:55:35.069Z,3876.00
2019-04-22T11:56:35.023Z,3700.00
2019-04-22T11:57:35.038Z,3848.00
2019-04-22T11:58:35.429Z,3920.00
2019-04-22T11:59:36.318Z,3888.00
2019-04-22T12:00:35.119Z,3780.00
2019-04-22T12:01:35.052Z,3812.00
2019-04-22T12:02:34.871Z,3748.00
2019-04-22T12:03:35.811Z,3760.00
2019-04-22T12:04:35.891Z,3756.00
2019-04-22T12:05:34.834Z,3704.00
2019-04-22T12:06:35.991Z,3852.00
2019-04-22T12:07:36.600Z,3944.00
2019-04-22T12:08:35.736Z,3896.00
2019-04-22T12:09:35.298Z,3892.00
2019-04-22T12:10:43.017Z,4052.00
2019-04-22T12:11:36.523Z,4176.00
2019-04-22T12:12:36.252Z,4192.00
2019-04-22T12:13:35.783Z,4256.00
2019-04-22T12:14:36.147Z,4324.00
2019-04-22T12:15:35.174Z,4412.00
2019-04-22T12:16:35.091Z,4424.00
2019-04-22T12:17:36.062Z,4488.00
2019-04-22T12:18:35.382Z,4600.00
2019-04-22T12:19:35.261Z,4740.00
2019-04-22T12:20:35.062Z,4788.00
2019-04-22T12:21:35.206Z,4988.00
2019-04-22T12:22:35.745Z,5228.00
2019-04-22T12:23:34.917Z,5312.00
2019-04-22T12:24:36.258Z,5664.00
2019-04-22T12:25:47.607Z,5844.00
2019-04-22T12:26:35.635Z,6200.00
2019-04-22T12:27:35.068Z,7292.00
2019-04-22T12:28:35.155Z,13856.00
2019-04-22T12:29:35.130Z,22560.00
2019-04-22T12:30:35.254Z,19424.00
2019-04-22T12:31:35.749Z,13404.00
2019-04-22T12:32:35.678Z,11360.00
2019-04-22T12:33:35.053Z,9472.00
2019-04-22T12:34:35.382Z,9008.00
2019-04-22T12:35:34.685Z,9476.00
2019-04-22T12:36:34.525Z,9172.00
2019-04-22T12:37:43.955Z,9120.00
2019-04-22T12:38:35.731Z,8996.00
2019-04-22T12:39:35.708Z,9372.00
2019-04-22T12:40:43.364Z,4900.00
2019-04-22T12:41:35.956Z,4792.00
2019-04-22T12:42:35.373Z,3012.00
2019-04-22T12:43:35.472Z,2900.00
2019-04-22T12:44:37.402Z,2736.00
2019-04-22T12:45:34.424Z,2680.00
2019-04-22T12:46:34.424Z,2652.00
2019-04-22T12:47:35.755Z,2624.00
2019-04-22T12:48:35.094Z,2628.00
2019-04-22T12:49:37.410Z,2624.00
2019-04-22T12:50:40.258Z,2608.00
2019-04-22T12:51:36.674Z,2572.00
2019-04-22T12:52:43.609Z,2536.00
2019-04-22T12:53:36.061Z,2548.00
2019-04-22T12:54:35.154Z,2548.00
2019-04-22T12:55:34.448Z,2536.00
2019-04-22T12:56:35.471Z,2532.00
2019-04-22T12:57:34.738Z,2516.00
2019-04-22T12:58:35.658Z,2504.00
2019-04-22T12:59:35.339Z,2468.00
2019-04-22T13:00:34.427Z,2468.00
2019-04-22T13:01:35.104Z,2464.00
2019-04-22T13:02:34.518Z,2452.00
2019-04-22T13:03:34.247Z,2460.00
2019-04-22T13:04:34.319Z,2452.00
2019-04-22T13:05:35.270Z,2444.00
2019-04-22T13:06:35.432Z,2440.00
2019-04-22T13:07:35.639Z,2420.00
2019-04-22T13:08:34.168Z,2400.00
2019-04-22T13:09:34.170Z,2396.00
2019-04-22T13:10:46.411Z,2388.00
2019-04-22T13:11:36.923Z,2372.00
2019-04-22T13:12:34.974Z,2372.00
2019-04-22T13:13:34.618Z,2412.00
2019-04-22T13:14:34.892Z,2344.00
2019-04-22T13:15:35.083Z,2352.00
2019-04-22T13:16:35.291Z,2348.00
2019-04-22T13:17:34.064Z,2364.00
2019-04-22T13:18:42.061Z,2348.00
2019-04-22T13:19:36.143Z,2336.00
2019-04-22T13:20:34.510Z,2328.00
2019-04-22T13:21:34.036Z,2316.00
2019-04-22T13:22:34.952Z,2308.00
2019-04-22T13:23:34.107Z,2300.00
2019-04-22T13:24:34.186Z,2296.00
2019-04-22T13:25:34.737Z,2296.00
2019-04-22T13:26:33.969Z,2308.00
2019-04-22T13:27:35.113Z,2300.00
2019-04-22T13:28:34.651Z,2304.00
2019-04-22T13:29:34.966Z,2300.00
2019-04-22T13:30:34.653Z,2324.00
2019-04-22T13:31:34.919Z,2284.00
2019-04-22T13:32:34.732Z,2284.00
2019-04-22T13:33:34.697Z,2284.00
2019-04-22T13:34:40.416Z,2276.00
2019-04-22T13:35:36.195Z,2272.00
2019-04-22T13:36:34.609Z,2276.00
2019-04-22T13:37:34.993Z,2276.00
2019-04-22T13:38:35.320Z,2280.00
2019-04-22T13:39:34.839Z,2292.00
2019-04-22T13:40:34.877Z,2300.00
2019-04-22T13:41:41.778Z,2292.00
2019-04-22T13:42:35.490Z,2292.00
2019-04-22T13:43:34.755Z,2300.00
2019-04-22T13:44:33.807Z,2316.00
2019-04-22T13:45:34.003Z,2312.00
2019-04-22T13:46:35.473Z,2308.00
2019-04-22T13:47:50.598Z,2308.00
2019-04-22T13:49:02.058Z,2280.00
2019-04-22T13:52:15.104Z,2316.00
2019-04-22T13:53:05.941Z,2304.00
2019-04-22T13:54:01.902Z,2272.00
2019-04-22T13:54:59.707Z,2316.00
2019-04-22T13:55:56.443Z,2292.00
2019-04-22T13:56:55.497Z,2296.00
2019-04-22T13:57:52.397Z,2312.00
2019-04-22T13:58:48.434Z,2320.00
2019-04-22T13:59:40.906Z,2332.00
2019-04-22T14:00:34.656Z,2348.00
2019-04-22T14:01:34.746Z,2340.00